Forest Hills, Michigan
Current Conditions -  °F | °C
As of 1:53 AM on Tuesday 21 Oct 2014 (Local Time) from KGRR Reporting Station
Overcast Overcast  
Wind Chill: 43°   Ceiling: 1800
Heat Index: 48°   Visibility: 10mi
Dew Point: 42°   Wind: 10mph
Humidity: 80%   Direction: 340°NNW
Pressure: 29.95"   Gusts: NA
Location:  42.9453°N, 85.6127°W
Report Text: KGRR 210553Z AUTO 34009KT 10SM BKN018 OVC060 09/06 A2995 RMK AO2 SLP142 T00890056 10111 20089 53001
Loading
Personal Weather Stations






























Interactive Weather Map
Tropical Storm Tracking
New forecast layout! Learn more

10-Day Weather Forecast

Advertisements
Track Severe Weather on mobile